sensor_id;sensor_type;location;lat;lon;timestamp;pressure;altitude;pressure_sealevel;temperature;humidity
13581;BME280;6861;46.170;7.222;2022-09-09T00:02:13;95825.72;;;21.76;44.25
13581;BME280;6861;46.170;7.222;2022-09-09T00:04:51;95827.59;;;21.75;44.04
13581;BME280;6861;46.170;7.222;2022-09-09T00:07:24;95822.50;;;21.70;43.98
13581;BME280;6861;46.170;7.222;2022-09-09T00:10:00;95824.41;;;21.70;44.21
13581;BME280;6861;46.170;7.222;2022-09-09T00:12:37;95822.84;;;21.69;44.41
13581;BME280;6861;46.170;7.222;2022-09-09T00:15:13;95819.75;;;21.67;44.31
13581;BME280;6861;46.170;7.222;2022-09-09T00:17:44;95817.09;;;21.67;43.84
13581;BME280;6861;46.170;7.222;2022-09-09T00:20:14;95815.91;;;21.64;44.31
13581;BME280;6861;46.170;7.222;2022-09-09T00:22:49;95819.59;;;21.59;44.37
13581;BME280;6861;46.170;7.222;2022-09-09T00:25:24;95818.72;;;21.55;44.98
13581;BME280;6861;46.170;7.222;2022-09-09T00:27:55;95821.28;;;21.52;44.67
13581;BME280;6861;46.170;7.222;2022-09-09T00:30:26;95825.47;;;21.53;44.95
13581;BME280;6861;46.170;7.222;2022-09-09T00:32:55;95827.81;;;21.54;45.27
13581;BME280;6861;46.170;7.222;2022-09-09T00:35:27;95832.81;;;21.56;45.54
13581;BME280;6861;46.170;7.222;2022-09-09T00:37:58;95830.13;;;21.56;45.10
13581;BME280;6861;46.170;7.222;2022-09-09T00:40:32;95830.91;;;21.56;45.54
13581;BME280;6861;46.170;7.222;2022-09-09T00:43:12;95834.69;;;21.55;45.53
13581;BME280;6861;46.170;7.222;2022-09-09T00:45:58;95834.16;;;21.50;45.89
13581;BME280;6861;46.170;7.222;2022-09-09T00:48:32;95840.00;;;21.55;46.25
13581;BME280;6861;46.170;7.222;2022-09-09T00:51:08;95826.69;;;21.55;46.49
13581;BME280;6861;46.170;7.222;2022-09-09T00:56:26;95807.47;;;21.34;46.33
13581;BME280;6861;46.170;7.222;2022-09-09T00:59:04;95791.81;;;21.20;46.40
13581;BME280;6861;46.170;7.222;2022-09-09T01:01:36;95790.88;;;21.01;47.16
13581;BME280;6861;46.170;7.222;2022-09-09T01:04:07;95795.41;;;20.88;47.14
13581;BME280;6861;46.170;7.222;2022-09-09T01:06:41;95804.31;;;20.80;47.61
13581;BME280;6861;46.170;7.222;2022-09-09T01:09:17;95814.75;;;20.73;48.28
13581;BME280;6861;46.170;7.222;2022-09-09T01:11:55;95814.19;;;20.67;47.94
13581;BME280;6861;46.170;7.222;2022-09-09T01:14:42;95806.88;;;20.64;48.36
13581;BME280;6861;46.170;7.222;2022-09-09T01:17:15;95807.66;;;20.65;48.26
13581;BME280;6861;46.170;7.222;2022-09-09T01:19:59;95808.88;;;20.67;48.28
13581;BME280;6861;46.170;7.222;2022-09-09T01:22:34;95810.53;;;20.72;48.29
13581;BME280;6861;46.170;7.222;2022-09-09T01:25:19;95799.56;;;20.73;48.11
13581;BME280;6861;46.170;7.222;2022-09-09T01:27:51;95800.22;;;20.70;48.32
13581;BME280;6861;46.170;7.222;2022-09-09T01:30:20;95805.97;;;20.60;48.38
13581;BME280;6861;46.170;7.222;2022-09-09T01:32:49;95797.56;;;20.58;48.27
13581;BME280;6861;46.170;7.222;2022-09-09T01:35:28;95810.63;;;20.63;48.44
13581;BME280;6861;46.170;7.222;2022-09-09T01:37:56;95819.94;;;20.69;48.34
13581;BME280;6861;46.170;7.222;2022-09-09T01:40:23;95812.53;;;20.75;48.46
13581;BME280;6861;46.170;7.222;2022-09-09T01:42:52;95822.56;;;20.81;48.75
13581;BME280;6861;46.170;7.222;2022-09-09T01:45:21;95826.78;;;20.82;48.61
13581;BME280;6861;46.170;7.222;2022-09-09T01:47:49;95829.56;;;20.86;48.90
13581;BME280;6861;46.170;7.222;2022-09-09T01:50:17;95831.22;;;20.90;48.88
13581;BME280;6861;46.170;7.222;2022-09-09T01:52:47;95835.53;;;20.95;48.88
13581;BME280;6861;46.170;7.222;2022-09-09T01:55:18;95838.31;;;20.99;48.63
13581;BME280;6861;46.170;7.222;2022-09-09T01:57:53;95829.22;;;21.00;48.62
13581;BME280;6861;46.170;7.222;2022-09-09T02:00:24;95817.91;;;21.03;48.43
13581;BME280;6861;46.170;7.222;2022-09-09T02:02:58;95817.13;;;21.02;48.65
13581;BME280;6861;46.170;7.222;2022-09-09T02:05:34;95819.03;;;21.02;48.90
13581;BME280;6861;46.170;7.222;2022-09-09T02:08:05;95823.91;;;21.00;49.11
13581;BME280;6861;46.170;7.222;2022-09-09T02:10:37;95824.66;;;21.00;48.72
13581;BME280;6861;46.170;7.222;2022-09-09T02:13:10;95832.31;;;21.02;48.71
13581;BME280;6861;46.170;7.222;2022-09-09T02:15:42;95834.97;;;21.02;48.86
13581;BME280;6861;46.170;7.222;2022-09-09T02:18:12;95825.78;;;20.99;49.09
13581;BME280;6861;46.170;7.222;2022-09-09T02:20:41;95818.91;;;20.98;48.88
13581;BME280;6861;46.170;7.222;2022-09-09T02:23:10;95820.47;;;20.99;49.00
13581;BME280;6861;46.170;7.222;2022-09-09T02:25:39;95811.03;;;21.02;48.94
13581;BME280;6861;46.170;7.222;2022-09-09T02:28:09;95810.16;;;20.98;49.06
13581;BME280;6861;46.170;7.222;2022-09-09T02:30:39;95814.59;;;20.93;49.65
13581;BME280;6861;46.170;7.222;2022-09-09T02:33:09;95810.81;;;20.94;49.23
13581;BME280;6861;46.170;7.222;2022-09-09T02:35:38;95819.25;;;20.97;49.40
13581;BME280;6861;46.170;7.222;2022-09-09T02:38:08;95814.38;;;20.99;49.08
13581;BME280;6861;46.170;7.222;2022-09-09T02:40:38;95808.59;;;20.97;49.33
13581;BME280;6861;46.170;7.222;2022-09-09T02:43:04;95817.34;;;20.97;49.31
13581;BME280;6861;46.170;7.222;2022-09-09T02:45:40;95816.91;;;20.95;49.82
13581;BME280;6861;46.170;7.222;2022-09-09T02:48:14;95808.84;;;20.91;49.70
13581;BME280;6861;46.170;7.222;2022-09-09T02:50:49;95806.16;;;20.91;49.66
13581;BME280;6861;46.170;7.222;2022-09-09T02:53:24;95816.81;;;20.91;49.54
13581;BME280;6861;46.170;7.222;2022-09-09T02:55:58;95815.25;;;20.90;49.55
13581;BME280;6861;46.170;7.222;2022-09-09T02:58:27;95815.69;;;20.92;49.44
13581;BME280;6861;46.170;7.222;2022-09-09T03:00:56;95814.47;;;20.90;49.72
13581;BME280;6861;46.170;7.222;2022-09-09T03:03:26;95812.16;;;20.88;49.67
13581;BME280;6861;46.170;7.222;2022-09-09T03:05:53;95802.97;;;20.86;49.70
13581;BME280;6861;46.170;7.222;2022-09-09T03:08:20;95813.94;;;20.84;49.95
13581;BME280;6861;46.170;7.222;2022-09-09T03:10:47;95809.28;;;20.81;50.16
13581;BME280;6861;46.170;7.222;2022-09-09T03:13:15;95815.72;;;20.80;49.96
13581;BME280;6861;46.170;7.222;2022-09-09T03:15:44;95812.63;;;20.78;50.24
13581;BME280;6861;46.170;7.222;2022-09-09T03:18:13;95804.88;;;20.73;50.14
13581;BME280;6861;46.170;7.222;2022-09-09T03:20:40;95807.09;;;20.71;50.27
13581;BME280;6861;46.170;7.222;2022-09-09T03:23:07;95802.56;;;20.72;50.31
13581;BME280;6861;46.170;7.222;2022-09-09T03:25:34;95804.88;;;20.73;50.20
13581;BME280;6861;46.170;7.222;2022-09-09T03:28:01;95807.22;;;20.75;50.28
13581;BME280;6861;46.170;7.222;2022-09-09T03:30:28;95808.41;;;20.77;50.37
13581;BME280;6861;46.170;7.222;2022-09-09T03:32:55;95814.19;;;20.79;50.28
13581;BME280;6861;46.170;7.222;2022-09-09T03:35:24;95814.19;;;20.79;50.29
13581;BME280;6861;46.170;7.222;2022-09-09T03:37:50;95814.97;;;20.80;50.03
13581;BME280;6861;46.170;7.222;2022-09-09T03:40:17;95815.03;;;20.83;50.36
13581;BME280;6861;46.170;7.222;2022-09-09T03:42:45;95818.81;;;20.82;50.25
13581;BME280;6861;46.170;7.222;2022-09-09T03:45:13;95813.94;;;20.84;50.24
13581;BME280;6861;46.170;7.222;2022-09-09T03:47:40;95811.28;;;20.84;50.35
13581;BME280;6861;46.170;7.222;2022-09-09T03:50:08;95811.72;;;20.86;50.35
13581;BME280;6861;46.170;7.222;2022-09-09T03:52:38;95814.38;;;20.86;50.27
13581;BME280;6861;46.170;7.222;2022-09-09T03:55:07;95808.38;;;20.89;50.11
13581;BME280;6861;46.170;7.222;2022-09-09T03:57:34;95802.72;;;20.91;50.37
13581;BME280;6861;46.170;7.222;2022-09-09T04:00:02;95794.75;;;20.91;50.26
13581;BME280;6861;46.170;7.222;2022-09-09T04:02:29;95808.38;;;20.89;50.09
13581;BME280;6861;46.170;7.222;2022-09-09T04:04:56;95802.19;;;20.85;50.41
13581;BME280;6861;46.170;7.222;2022-09-09T04:07:23;95804.66;;;20.78;50.71
13581;BME280;6861;46.170;7.222;2022-09-09T04:09:52;95799.13;;;20.71;51.05
13581;BME280;6861;46.170;7.222;2022-09-09T04:12:20;95794.47;;;20.56;51.24
13581;BME280;6861;46.170;7.222;2022-09-09T04:14:47;95802.88;;;20.46;51.39
13581;BME280;6861;46.170;7.222;2022-09-09T04:17:14;95799.84;;;20.35;51.69
13581;BME280;6861;46.170;7.222;2022-09-09T04:19:41;95799.63;;;20.28;51.64
13581;BME280;6861;46.170;7.222;2022-09-09T04:22:08;95798.06;;;20.27;51.59
13581;BME280;6861;46.170;7.222;2022-09-09T04:24:35;95803.81;;;20.29;51.69
13581;BME280;6861;46.170;7.222;2022-09-09T04:27:04;95807.91;;;20.26;51.81
13581;BME280;6861;46.170;7.222;2022-09-09T04:29:31;95807.44;;;20.12;51.86
13581;BME280;6861;46.170;7.222;2022-09-09T04:31:58;95797.31;;;19.93;52.43
13581;BME280;6861;46.170;7.222;2022-09-09T04:34:25;95805.81;;;19.75;52.56
13581;BME280;6861;46.170;7.222;2022-09-09T04:36:52;95808.88;;;19.64;52.81
13581;BME280;6861;46.170;7.222;2022-09-09T04:39:20;95816.78;;;19.52;53.45
13581;BME280;6861;46.170;7.222;2022-09-09T04:41:47;95806.66;;;19.46;53.48
13581;BME280;6861;46.170;7.222;2022-09-09T04:44:15;95818.03;;;19.46;53.54
13581;BME280;6861;46.170;7.222;2022-09-09T04:46:42;95822.44;;;19.42;53.40
13581;BME280;6861;46.170;7.222;2022-09-09T04:49:09;95827.63;;;19.39;53.62
13581;BME280;6861;46.170;7.222;2022-09-09T04:51:36;95819.06;;;19.33;54.04
13581;BME280;6861;46.170;7.222;2022-09-09T04:54:03;95826.13;;;19.29;54.25
13581;BME280;6861;46.170;7.222;2022-09-09T04:56:31;95819.47;;;19.23;54.10
13581;BME280;6861;46.170;7.222;2022-09-09T04:58:58;95825.88;;;19.22;54.27
13581;BME280;6861;46.170;7.222;2022-09-09T05:01:26;95817.00;;;19.18;54.12
13581;BME280;6861;46.170;7.222;2022-09-09T05:03:53;95829.03;;;19.15;54.46
13581;BME280;6861;46.170;7.222;2022-09-09T05:06:21;95822.34;;;19.09;54.68
13581;BME280;6861;46.170;7.222;2022-09-09T05:08:48;95822.69;;;19.08;54.50
13581;BME280;6861;46.170;7.222;2022-09-09T05:11:17;95826.13;;;19.08;54.78
13581;BME280;6861;46.170;7.222;2022-09-09T05:13:45;95824.69;;;19.11;54.66
13581;BME280;6861;46.170;7.222;2022-09-09T05:16:13;95822.81;;;19.11;54.48
13581;BME280;6861;46.170;7.222;2022-09-09T05:18:42;95825.59;;;19.15;54.37
13581;BME280;6861;46.170;7.222;2022-09-09T05:21:09;95833.56;;;19.15;54.64
13581;BME280;6861;46.170;7.222;2022-09-09T05:23:37;95840.41;;;19.16;54.65
13581;BME280;6861;46.170;7.222;2022-09-09T05:26:04;95832.91;;;19.18;54.63
13581;BME280;6861;46.170;7.222;2022-09-09T05:28:34;95838.88;;;19.15;54.84
13581;BME280;6861;46.170;7.222;2022-09-09T05:31:03;95839.19;;;19.13;54.71
13581;BME280;6861;46.170;7.222;2022-09-09T05:33:31;95835.75;;;19.13;54.59
13581;BME280;6861;46.170;7.222;2022-09-09T05:36:01;95843.53;;;19.18;54.46
13581;BME280;6861;46.170;7.222;2022-09-09T05:38:29;95844.94;;;19.15;54.62
13581;BME280;6861;46.170;7.222;2022-09-09T05:40:57;95851.47;;;19.18;54.35
13581;BME280;6861;46.170;7.222;2022-09-09T05:43:25;95853.50;;;19.21;54.53
13581;BME280;6861;46.170;7.222;2022-09-09T05:46:00;95855.69;;;19.19;54.84
13581;BME280;6861;46.170;7.222;2022-09-09T05:48:29;95858.81;;;19.21;54.53
13581;BME280;6861;46.170;7.222;2022-09-09T05:50:56;95852.22;;;19.27;54.63
13581;BME280;6861;46.170;7.222;2022-09-09T05:53:25;95854.53;;;19.28;54.70
13581;BME280;6861;46.170;7.222;2022-09-09T05:55:59;95862.00;;;19.35;54.58
13581;BME280;6861;46.170;7.222;2022-09-09T05:58:26;95865.56;;;19.39;54.08
13581;BME280;6861;46.170;7.222;2022-09-09T06:00:59;95859.59;;;19.42;54.46
13581;BME280;6861;46.170;7.222;2022-09-09T06:03:26;95866.13;;;19.45;54.24
13581;BME280;6861;46.170;7.222;2022-09-09T06:05:57;95865.81;;;19.46;54.64
13581;BME280;6861;46.170;7.222;2022-09-09T06:08:26;95865.16;;;19.49;54.63
13581;BME280;6861;46.170;7.222;2022-09-09T06:10:53;95865.66;;;19.51;54.57
13581;BME280;6861;46.170;7.222;2022-09-09T06:13:20;95859.25;;;19.52;54.49
13581;BME280;6861;46.170;7.222;2022-09-09T06:15:50;95862.34;;;19.54;54.16
13581;BME280;6861;46.170;7.222;2022-09-09T06:18:17;95869.84;;;19.52;54.23
13581;BME280;6861;46.170;7.222;2022-09-09T06:20:54;95875.16;;;19.52;54.29
13581;BME280;6861;46.170;7.222;2022-09-09T06:23:21;95861.91;;;19.52;54.13
13581;BME280;6861;46.170;7.222;2022-09-09T06:25:49;95866.09;;;19.53;54.61
13581;BME280;6861;46.170;7.222;2022-09-09T06:28:17;95872.97;;;19.54;54.53
13581;BME280;6861;46.170;7.222;2022-09-09T06:30:44;95867.19;;;19.52;54.38
13581;BME280;6861;46.170;7.222;2022-09-09T06:33:12;95866.88;;;19.54;54.77
13581;BME280;6861;46.170;7.222;2022-09-09T06:35:39;95863.00;;;19.51;54.35
13581;BME280;6861;46.170;7.222;2022-09-09T06:38:06;95865.47;;;19.56;54.32
13581;BME280;6861;46.170;7.222;2022-09-09T06:40:34;95870.75;;;19.56;54.57
13581;BME280;6861;46.170;7.222;2022-09-09T06:43:02;95873.41;;;19.56;54.64
13581;BME280;6861;46.170;7.222;2022-09-09T06:45:29;95866.88;;;19.54;54.57
13581;BME280;6861;46.170;7.222;2022-09-09T06:47:56;95866.88;;;19.54;54.83
13581;BME280;6861;46.170;7.222;2022-09-09T06:50:23;95872.97;;;19.54;54.81
13581;BME280;6861;46.170;7.222;2022-09-09T06:52:50;95863.44;;;19.53;55.04
13581;BME280;6861;46.170;7.222;2022-09-09T06:55:17;95859.25;;;19.52;54.64
13581;BME280;6861;46.170;7.222;2022-09-09T06:57:44;95853.94;;;19.52;54.89
13581;BME280;6861;46.170;7.222;2022-09-09T07:00:13;95860.78;;;19.53;54.54
13581;BME280;6861;46.170;7.222;2022-09-09T07:02:40;95862.66;;;19.53;54.92
13581;BME280;6861;46.170;7.222;2022-09-09T07:05:08;95864.06;;;19.50;54.64
13581;BME280;6861;46.170;7.222;2022-09-09T07:07:35;95867.81;;;19.49;54.75
13581;BME280;6861;46.170;7.222;2022-09-09T07:10:03;95865.66;;;19.51;54.70
13581;BME280;6861;46.170;7.222;2022-09-09T07:12:30;95861.41;;;19.50;54.69
13581;BME280;6861;46.170;7.222;2022-09-09T07:14:57;95860.34;;;19.51;54.50
13581;BME280;6861;46.170;7.222;2022-09-09T07:17:27;95857.22;;;19.49;54.59
13581;BME280;6861;46.170;7.222;2022-09-09T07:19:54;95862.19;;;19.51;54.65
13581;BME280;6861;46.170;7.222;2022-09-09T07:22:22;95861.41;;;19.50;54.83
13581;BME280;6861;46.170;7.222;2022-09-09T07:24:50;95870.75;;;19.56;54.84
13581;BME280;6861;46.170;7.222;2022-09-09T07:27:16;95860.78;;;19.74;54.77
13581;BME280;6861;46.170;7.222;2022-09-09T07:29:43;95862.53;;;20.03;54.69
13581;BME280;6861;46.170;7.222;2022-09-09T07:32:10;95863.78;;;20.39;54.43
13581;BME280;6861;46.170;7.222;2022-09-09T07:34:39;95858.63;;;20.79;53.64
13581;BME280;6861;46.170;7.222;2022-09-09T07:37:06;95853.69;;;21.17;52.59
13581;BME280;6861;46.170;7.222;2022-09-09T07:39:33;95857.44;;;21.53;51.77
13581;BME280;6861;46.170;7.222;2022-09-09T07:42:00;95856.94;;;21.91;51.13
13581;BME280;6861;46.170;7.222;2022-09-09T07:44:27;95852.25;;;22.28;50.34
13581;BME280;6861;46.170;7.222;2022-09-09T07:46:54;95858.09;;;22.65;50.11
13581;BME280;6861;46.170;7.222;2022-09-09T07:49:21;95853.63;;;23.01;49.44
13581;BME280;6861;46.170;7.222;2022-09-09T07:51:49;95860.47;;;23.33;48.52
13581;BME280;6861;46.170;7.222;2022-09-09T07:54:18;95852.63;;;23.60;47.59
13581;BME280;6861;46.170;7.222;2022-09-09T07:56:46;95859.97;;;23.82;46.98
13581;BME280;6861;46.170;7.222;2022-09-09T07:59:14;95859.53;;;23.99;46.55
13581;BME280;6861;46.170;7.222;2022-09-09T08:01:43;95856.34;;;24.13;45.68
13581;BME280;6861;46.170;7.222;2022-09-09T08:04:13;95852.75;;;24.25;45.58
13581;BME280;6861;46.170;7.222;2022-09-09T08:06:43;95854.06;;;24.34;45.32
13581;BME280;6861;46.170;7.222;2022-09-09T08:09:12;95849.59;;;24.42;44.94
13581;BME280;6861;46.170;7.222;2022-09-09T08:11:40;95851.28;;;24.50;44.65
13581;BME280;6861;46.170;7.222;2022-09-09T08:14:08;95844.63;;;24.63;44.85
13581;BME280;6861;46.170;7.222;2022-09-09T08:16:37;95842.53;;;24.76;44.88
13581;BME280;6861;46.170;7.222;2022-09-09T08:19:04;95851.16;;;24.89;44.81
13581;BME280;6861;46.170;7.222;2022-09-09T08:21:34;95852.88;;;25.00;44.72
13581;BME280;6861;46.170;7.222;2022-09-09T08:24:03;95850.78;;;25.13;44.37
13581;BME280;6861;46.170;7.222;2022-09-09T08:26:34;95860.13;;;25.26;44.09
13581;BME280;6861;46.170;7.222;2022-09-09T08:29:03;95850.41;;;25.44;43.95
13581;BME280;6861;46.170;7.222;2022-09-09T08:31:32;95849.88;;;25.62;43.52
13581;BME280;6861;46.170;7.222;2022-09-09T08:33:59;95858.16;;;25.79;43.31
13581;BME280;6861;46.170;7.222;2022-09-09T08:36:30;95858.69;;;25.92;43.16
13581;BME280;6861;46.170;7.222;2022-09-09T08:38:59;95855.75;;;26.04;42.82
13581;BME280;6861;46.170;7.222;2022-09-09T08:41:52;95848.25;;;26.21;42.60
13581;BME280;6861;46.170;7.222;2022-09-09T08:44:31;95847.31;;;26.39;42.39
13581;BME280;6861;46.170;7.222;2022-09-09T08:47:07;95844.00;;;26.53;41.98
13581;BME280;6861;46.170;7.222;2022-09-09T08:50:04;95845.25;;;26.66;41.06
13581;BME280;6861;46.170;7.222;2022-09-09T08:52:37;95842.28;;;26.78;41.20
13581;BME280;6861;46.170;7.222;2022-09-09T08:55:15;95845.78;;;26.90;40.65
13581;BME280;6861;46.170;7.222;2022-09-09T08:57:45;95849.00;;;27.02;40.35
13581;BME280;6861;46.170;7.222;2022-09-09T09:00:13;95838.69;;;27.12;40.68
13581;BME280;6861;46.170;7.222;2022-09-09T09:02:48;95839.50;;;27.19;39.58
13581;BME280;6861;46.170;7.222;2022-09-09T09:05:27;95836.88;;;27.26;40.19
13581;BME280;6861;46.170;7.222;2022-09-09T09:08:06;95836.50;;;27.31;39.50
13581;BME280;6861;46.170;7.222;2022-09-09T09:10:44;95834.63;;;27.35;38.99
13581;BME280;6861;46.170;7.222;2022-09-09T09:13:19;95829.25;;;27.39;38.61
13581;BME280;6861;46.170;7.222;2022-09-09T09:15:51;95817.75;;;27.42;39.34
13581;BME280;6861;46.170;7.222;2022-09-09T09:18:20;95823.53;;;27.44;39.24
13581;BME280;6861;46.170;7.222;2022-09-09T09:20:54;95817.03;;;27.49;38.73
13581;BME280;6861;46.170;7.222;2022-09-09T09:23:24;95817.81;;;27.56;39.04
13581;BME280;6861;46.170;7.222;2022-09-09T09:25:55;95812.88;;;27.62;39.22
13581;BME280;6861;46.170;7.222;2022-09-09T09:28:26;95811.38;;;27.71;38.87
13581;BME280;6861;46.170;7.222;2022-09-09T09:30:57;95794.09;;;27.76;37.86
13581;BME280;6861;46.170;7.222;2022-09-09T09:33:28;95795.66;;;27.88;38.40
13581;BME280;6861;46.170;7.222;2022-09-09T09:35:58;95797.97;;;27.93;38.18
13581;BME280;6861;46.170;7.222;2022-09-09T09:38:27;95790.69;;;28.00;38.25
13581;BME280;6861;46.170;7.222;2022-09-09T09:40:55;95791.09;;;28.10;38.15
13581;BME280;6861;46.170;7.222;2022-09-09T09:43:28;95791.88;;;28.21;38.25
13581;BME280;6861;46.170;7.222;2022-09-09T09:45:56;95780.78;;;28.33;37.57
13581;BME280;6861;46.170;7.222;2022-09-09T09:48:24;95785.41;;;28.43;37.69
13581;BME280;6861;46.170;7.222;2022-09-09T09:50:54;95783.47;;;28.54;37.35
13581;BME280;6861;46.170;7.222;2022-09-09T09:53:25;95773.84;;;28.60;37.14
13581;BME280;6861;46.170;7.222;2022-09-09T09:55:58;95774.59;;;28.71;37.16
13581;BME280;6861;46.170;7.222;2022-09-09T09:58:30;95767.28;;;28.79;36.49
13581;BME280;6861;46.170;7.222;2022-09-09T10:01:00;95770.38;;;28.85;36.19
13581;BME280;6861;46.170;7.222;2022-09-09T10:03:29;95766.13;;;28.91;36.26
13581;BME280;6861;46.170;7.222;2022-09-09T10:05:56;95765.34;;;28.97;36.29
13581;BME280;6861;46.170;7.222;2022-09-09T10:08:24;95760.34;;;29.03;36.15
13581;BME280;6861;46.170;7.222;2022-09-09T10:11:09;95758.78;;;29.09;35.43
13581;BME280;6861;46.170;7.222;2022-09-09T10:13:53;95749.91;;;29.12;35.49
13581;BME280;6861;46.170;7.222;2022-09-09T10:16:38;95747.59;;;29.14;35.75
13581;BME280;6861;46.170;7.222;2022-09-09T10:19:12;95739.50;;;29.21;35.37
13581;BME280;6861;46.170;7.222;2022-09-09T10:22:04;95735.25;;;29.27;34.67
13581;BME280;6861;46.170;7.222;2022-09-09T10:24:44;95722.91;;;29.33;34.30
13581;BME280;6861;46.170;7.222;2022-09-09T10:27:20;95716.72;;;29.36;34.16
13581;BME280;6861;46.170;7.222;2022-09-09T10:30:02;95716.31;;;29.45;33.37
13581;BME280;6861;46.170;7.222;2022-09-09T10:32:40;95713.97;;;29.51;32.84
13581;BME280;6861;46.170;7.222;2022-09-09T10:35:14;95714.31;;;29.56;32.93
13581;BME280;6861;46.170;7.222;2022-09-09T10:38:09;95715.03;;;29.64;32.54
13581;BME280;6861;46.170;7.222;2022-09-09T10:40:43;95711.53;;;29.71;32.47
13581;BME280;6861;46.170;7.222;2022-09-09T10:43:24;95710.72;;;29.77;32.67
13581;BME280;6861;46.170;7.222;2022-09-09T10:46:02;95701.44;;;29.85;32.28
13581;BME280;6861;46.170;7.222;2022-09-09T10:48:48;95694.81;;;29.93;32.12
13581;BME280;6861;46.170;7.222;2022-09-09T10:51:28;95699.81;;;30.02;31.87
13581;BME280;6861;46.170;7.222;2022-09-09T10:54:15;95700.53;;;30.10;31.30
13581;BME280;6861;46.170;7.222;2022-09-09T10:56:48;95693.53;;;30.16;30.75
13581;BME280;6861;46.170;7.222;2022-09-09T10:59:23;95685.00;;;30.21;29.50
13581;BME280;6861;46.170;7.222;2022-09-09T11:01:57;95688.84;;;30.23;28.94
13581;BME280;6861;46.170;7.222;2022-09-09T11:04:29;95682.66;;;30.26;28.76
13581;BME280;6861;46.170;7.222;2022-09-09T11:07:01;95681.84;;;30.29;28.60
13581;BME280;6861;46.170;7.222;2022-09-09T11:09:35;95666.41;;;30.30;28.09
13581;BME280;6861;46.170;7.222;2022-09-09T11:12:05;95677.25;;;30.26;28.28
13581;BME280;6861;46.170;7.222;2022-09-09T11:14:42;95664.56;;;30.20;27.81
13581;BME280;6861;46.170;7.222;2022-09-09T11:17:14;95672.38;;;30.11;27.64
13581;BME280;6861;46.170;7.222;2022-09-09T11:19:44;95662.03;;;30.02;27.47
13581;BME280;6861;46.170;7.222;2022-09-09T11:22:20;95658.22;;;29.92;27.38
13581;BME280;6861;46.170;7.222;2022-09-09T11:24:50;95659.81;;;29.83;27.75
13581;BME280;6861;46.170;7.222;2022-09-09T11:27:22;95653.34;;;29.73;27.32
13581;BME280;6861;46.170;7.222;2022-09-09T11:30:05;95652.28;;;29.60;26.61
13581;BME280;6861;46.170;7.222;2022-09-09T11:32:58;95645.38;;;29.52;26.69
13581;BME280;6861;46.170;7.222;2022-09-09T11:35:34;95642.38;;;29.43;26.82
13581;BME280;6861;46.170;7.222;2022-09-09T11:38:25;95643.19;;;29.32;26.79
13581;BME280;6861;46.170;7.222;2022-09-09T11:40:57;95638.59;;;29.26;27.26
13581;BME280;6861;46.170;7.222;2022-09-09T11:43:29;95638.25;;;29.20;27.22
13581;BME280;6861;46.170;7.222;2022-09-09T11:46:00;95645.56;;;29.16;27.14
13581;BME280;6861;46.170;7.222;2022-09-09T11:48:34;95648.69;;;29.11;27.19
13581;BME280;6861;46.170;7.222;2022-09-09T11:51:06;95645.63;;;29.06;26.71
13581;BME280;6861;46.170;7.222;2022-09-09T11:53:35;95637.56;;;28.98;26.33
13581;BME280;6861;46.170;7.222;2022-09-09T11:56:11;95644.91;;;28.94;26.50
13581;BME280;6861;46.170;7.222;2022-09-09T11:58:43;95636.47;;;28.89;26.23
13581;BME280;6861;46.170;7.222;2022-09-09T12:01:33;95634.16;;;28.84;26.14
13581;BME280;6861;46.170;7.222;2022-09-09T12:04:16;95643.00;;;28.81;26.33
13581;BME280;6861;46.170;7.222;2022-09-09T12:06:46;95640.69;;;28.79;26.79
13581;BME280;6861;46.170;7.222;2022-09-09T12:09:21;95638.00;;;28.79;26.48
13581;BME280;6861;46.170;7.222;2022-09-09T12:11:50;95632.63;;;28.79;26.67
13581;BME280;6861;46.170;7.222;2022-09-09T12:14:23;95634.16;;;28.77;26.62
13581;BME280;6861;46.170;7.222;2022-09-09T12:17:09;95632.63;;;28.72;26.46
13581;BME280;6861;46.170;7.222;2022-09-09T12:19:37;95636.09;;;28.76;27.13
13581;BME280;6861;46.170;7.222;2022-09-09T12:22:09;95631.47;;;28.77;26.84
13581;BME280;6861;46.170;7.222;2022-09-09T12:24:44;95635.69;;;28.78;27.05
13581;BME280;6861;46.170;7.222;2022-09-09T12:27:18;95640.31;;;28.81;27.68
13581;BME280;6861;46.170;7.222;2022-09-09T12:29:51;95626.47;;;28.79;27.33
13581;BME280;6861;46.170;7.222;2022-09-09T12:32:24;95631.06;;;28.82;27.57
13581;BME280;6861;46.170;7.222;2022-09-09T12:34:55;95634.91;;;28.81;27.75
13581;BME280;6861;46.170;7.222;2022-09-09T12:37:28;95636.44;;;28.82;26.93
13581;BME280;6861;46.170;7.222;2022-09-09T12:39:57;95639.16;;;28.82;27.37
13581;BME280;6861;46.170;7.222;2022-09-09T12:42:26;95644.16;;;28.83;27.42
13581;BME280;6861;46.170;7.222;2022-09-09T12:44:55;95645.31;;;28.82;27.63
13581;BME280;6861;46.170;7.222;2022-09-09T12:47:26;95645.31;;;28.82;27.10
13581;BME280;6861;46.170;7.222;2022-09-09T12:49:57;95644.53;;;28.82;27.37
13581;BME280;6861;46.170;7.222;2022-09-09T12:52:29;95636.06;;;28.80;27.00
13581;BME280;6861;46.170;7.222;2022-09-09T12:54:59;95639.94;;;28.79;26.86
13581;BME280;6861;46.170;7.222;2022-09-09T12:57:32;95637.63;;;28.73;26.81
13581;BME280;6861;46.170;7.222;2022-09-09T13:00:11;95646.09;;;28.76;27.45
13581;BME280;6861;46.170;7.222;2022-09-09T13:02:46;95638.78;;;28.76;27.63
13581;BME280;6861;46.170;7.222;2022-09-09T13:05:19;95642.25;;;28.77;27.37
13581;BME280;6861;46.170;7.222;2022-09-09T13:07:47;95633.78;;;28.75;27.55
13581;BME280;6861;46.170;7.222;2022-09-09T13:10:15;95630.31;;;28.74;27.05
13581;BME280;6861;46.170;7.222;2022-09-09T13:12:46;95625.72;;;28.67;26.96
13581;BME280;6861;46.170;7.222;2022-09-09T13:15:20;95638.41;;;28.70;27.42
13581;BME280;6861;46.170;7.222;2022-09-09T13:17:53;95629.56;;;28.70;27.74
13581;BME280;6861;46.170;7.222;2022-09-09T13:20:23;95635.34;;;28.68;27.74
13581;BME280;6861;46.170;7.222;2022-09-09T13:22:51;95636.09;;;28.69;27.52
13581;BME280;6861;46.170;7.222;2022-09-09T13:25:23;95639.56;;;28.69;27.85
13581;BME280;6861;46.170;7.222;2022-09-09T13:27:57;95638.03;;;28.68;26.90
13581;BME280;6861;46.170;7.222;2022-09-09T13:30:27;95644.94;;;28.69;27.20
13581;BME280;6861;46.170;7.222;2022-09-09T13:33:17;95643.41;;;28.68;27.18
13581;BME280;6861;46.170;7.222;2022-09-09T13:35:49;95638.81;;;28.69;26.66